sensor_id;sensor_type;location;lat;lon;timestamp;P1;durP1;ratioP1;P2;durP2;ratioP2
29902;SDS011;30288;50.514;9.678;2024-01-06T00:01:40;15.20;;;5.40;;
29902;SDS011;30288;50.514;9.678;2024-01-06T00:03:46;13.50;;;5.30;;
29902;SDS011;30288;50.514;9.678;2024-01-06T00:05:57;10.98;;;4.68;;
29902;SDS011;30288;50.514;9.678;2024-01-06T00:08:01;12.30;;;4.45;;
29902;SDS011;30288;50.514;9.678;2024-01-06T00:10:08;18.27;;;5.05;;
29902;SDS011;30288;50.514;9.678;2024-01-06T00:12:19;13.77;;;4.60;;
29902;SDS011;30288;50.514;9.678;2024-01-06T00:14:26;15.65;;;4.90;;
29902;SDS011;30288;50.514;9.678;2024-01-06T00:16:32;14.30;;;4.05;;
29902;SDS011;30288;50.514;9.678;2024-01-06T00:18:37;13.35;;;4.18;;
29902;SDS011;30288;50.514;9.678;2024-01-06T00:20:44;10.52;;;4.57;;
29902;SDS011;30288;50.514;9.678;2024-01-06T00:22:49;8.23;;;3.95;;
29902;SDS011;30288;50.514;9.678;2024-01-06T00:24:55;9.23;;;3.00;;
29902;SDS011;30288;50.514;9.678;2024-01-06T00:26:58;9.55;;;3.40;;
29902;SDS011;30288;50.514;9.678;2024-01-06T00:29:04;12.80;;;3.80;;
29902;SDS011;30288;50.514;9.678;2024-01-06T00:31:12;9.48;;;3.58;;
29902;SDS011;30288;50.514;9.678;2024-01-06T00:33:23;11.48;;;2.88;;
29902;SDS011;30288;50.514;9.678;2024-01-06T00:35:29;10.32;;;2.70;;
29902;SDS011;30288;50.514;9.678;2024-01-06T00:37:35;8.38;;;2.60;;
29902;SDS011;30288;50.514;9.678;2024-01-06T00:39:43;9.30;;;2.47;;
29902;SDS011;30288;50.514;9.678;2024-01-06T00:41:49;6.82;;;2.70;;
29902;SDS011;30288;50.514;9.678;2024-01-06T00:46:00;10.38;;;2.95;;
29902;SDS011;30288;50.514;9.678;2024-01-06T00:48:06;9.40;;;2.70;;
29902;SDS011;30288;50.514;9.678;2024-01-06T00:50:13;12.50;;;3.05;;
29902;SDS011;30288;50.514;9.678;2024-01-06T00:52:23;11.45;;;3.60;;
29902;SDS011;30288;50.514;9.678;2024-01-06T00:54:28;15.20;;;3.63;;
29902;SDS011;30288;50.514;9.678;2024-01-06T00:56:36;9.77;;;2.45;;
29902;SDS011;30288;50.514;9.678;2024-01-06T00:58:43;7.53;;;2.25;;
29902;SDS011;30288;50.514;9.678;2024-01-06T01:00:49;9.95;;;2.42;;
29902;SDS011;30288;50.514;9.678;2024-01-06T01:02:55;6.82;;;2.28;;
29902;SDS011;30288;50.514;9.678;2024-01-06T01:05:01;6.30;;;2.10;;
29902;SDS011;30288;50.514;9.678;2024-01-06T01:07:09;8.30;;;2.40;;
29902;SDS011;30288;50.514;9.678;2024-01-06T01:09:12;8.80;;;2.40;;
29902;SDS011;30288;50.514;9.678;2024-01-06T01:11:18;12.00;;;2.40;;
29902;SDS011;30288;50.514;9.678;2024-01-06T01:13:33;7.40;;;2.20;;
29902;SDS011;30288;50.514;9.678;2024-01-06T01:15:38;14.07;;;3.88;;
29902;SDS011;30288;50.514;9.678;2024-01-06T01:17:44;7.82;;;2.42;;
29902;SDS011;30288;50.514;9.678;2024-01-06T01:19:49;10.00;;;2.67;;
29902;SDS011;30288;50.514;9.678;2024-01-06T01:21:57;10.52;;;3.13;;
29902;SDS011;30288;50.514;9.678;2024-01-06T01:24:07;11.00;;;3.40;;
29902;SDS011;30288;50.514;9.678;2024-01-06T01:26:12;10.18;;;2.10;;
29902;SDS011;30288;50.514;9.678;2024-01-06T01:28:18;8.23;;;2.50;;
29902;SDS011;30288;50.514;9.678;2024-01-06T01:30:24;8.13;;;2.22;;
29902;SDS011;30288;50.514;9.678;2024-01-06T01:32:30;9.15;;;2.08;;
29902;SDS011;30288;50.514;9.678;2024-01-06T01:34:38;7.70;;;1.92;;
29902;SDS011;30288;50.514;9.678;2024-01-06T01:36:47;18.90;;;5.70;;
29902;SDS011;30288;50.514;9.678;2024-01-06T01:38:52;7.88;;;2.42;;
29902;SDS011;30288;50.514;9.678;2024-01-06T01:41:00;9.70;;;2.22;;
29902;SDS011;30288;50.514;9.678;2024-01-06T01:43:15;8.27;;;2.38;;
29902;SDS011;30288;50.514;9.678;2024-01-06T01:45:23;7.50;;;2.20;;
29902;SDS011;30288;50.514;9.678;2024-01-06T01:47:29;10.10;;;2.70;;
29902;SDS011;30288;50.514;9.678;2024-01-06T01:49:35;8.32;;;2.55;;
29902;SDS011;30288;50.514;9.678;2024-01-06T01:51:41;10.65;;;2.20;;
29902;SDS011;30288;50.514;9.678;2024-01-06T01:53:48;9.93;;;2.30;;
29902;SDS011;30288;50.514;9.678;2024-01-06T01:55:53;7.85;;;2.35;;
29902;SDS011;30288;50.514;9.678;2024-01-06T01:58:00;11.73;;;2.25;;
29902;SDS011;30288;50.514;9.678;2024-01-06T02:00:03;9.38;;;2.83;;
29902;SDS011;30288;50.514;9.678;2024-01-06T02:02:16;9.25;;;2.22;;
29902;SDS011;30288;50.514;9.678;2024-01-06T02:04:22;12.80;;;2.30;;
29902;SDS011;30288;50.514;9.678;2024-01-06T02:06:28;12.15;;;3.60;;
29902;SDS011;30288;50.514;9.678;2024-01-06T02:08:33;14.23;;;2.90;;
29902;SDS011;30288;50.514;9.678;2024-01-06T02:10:39;7.78;;;2.25;;
29902;SDS011;30288;50.514;9.678;2024-01-06T02:12:49;6.75;;;2.15;;
29902;SDS011;30288;50.514;9.678;2024-01-06T02:14:57;9.50;;;2.63;;
29902;SDS011;30288;50.514;9.678;2024-01-06T02:17:03;7.82;;;2.40;;
29902;SDS011;30288;50.514;9.678;2024-01-06T02:19:11;9.88;;;2.75;;
29902;SDS011;30288;50.514;9.678;2024-01-06T02:21:19;9.65;;;2.60;;
29902;SDS011;30288;50.514;9.678;2024-01-06T02:23:30;8.93;;;2.10;;
29902;SDS011;30288;50.514;9.678;2024-01-06T02:25:38;7.05;;;2.10;;
29902;SDS011;30288;50.514;9.678;2024-01-06T02:27:44;9.75;;;2.40;;
29902;SDS011;30288;50.514;9.678;2024-01-06T02:29:50;12.30;;;3.55;;
29902;SDS011;30288;50.514;9.678;2024-01-06T02:31:58;9.30;;;2.95;;
29902;SDS011;30288;50.514;9.678;2024-01-06T02:34:03;8.25;;;2.20;;
29902;SDS011;30288;50.514;9.678;2024-01-06T02:36:09;8.07;;;2.22;;
29902;SDS011;30288;50.514;9.678;2024-01-06T02:38:13;8.80;;;2.80;;
29902;SDS011;30288;50.514;9.678;2024-01-06T02:40:22;6.75;;;2.10;;
29902;SDS011;30288;50.514;9.678;2024-01-06T02:42:27;4.47;;;1.90;;
29902;SDS011;30288;50.514;9.678;2024-01-06T02:44:42;9.35;;;2.40;;
29902;SDS011;30288;50.514;9.678;2024-01-06T02:46:45;6.40;;;2.30;;
29902;SDS011;30288;50.514;9.678;2024-01-06T02:48:50;7.93;;;2.30;;
29902;SDS011;30288;50.514;9.678;2024-01-06T02:50:56;8.65;;;1.98;;
29902;SDS011;30288;50.514;9.678;2024-01-06T02:53:03;7.72;;;2.10;;
29902;SDS011;30288;50.514;9.678;2024-01-06T02:55:09;12.25;;;2.55;;
29902;SDS011;30288;50.514;9.678;2024-01-06T02:57:17;9.38;;;2.88;;
29902;SDS011;30288;50.514;9.678;2024-01-06T02:59:23;8.45;;;2.20;;
29902;SDS011;30288;50.514;9.678;2024-01-06T03:01:28;14.05;;;2.60;;
29902;SDS011;30288;50.514;9.678;2024-01-06T03:03:35;6.20;;;2.03;;
29902;SDS011;30288;50.514;9.678;2024-01-06T03:05:41;8.35;;;2.67;;
29902;SDS011;30288;50.514;9.678;2024-01-06T03:07:48;8.52;;;2.22;;
29902;SDS011;30288;50.514;9.678;2024-01-06T03:09:54;8.38;;;2.45;;
29902;SDS011;30288;50.514;9.678;2024-01-06T03:12:02;12.52;;;2.42;;
29902;SDS011;30288;50.514;9.678;2024-01-06T03:14:12;11.23;;;2.63;;
29902;SDS011;30288;50.514;9.678;2024-01-06T03:16:18;12.48;;;2.35;;
29902;SDS011;30288;50.514;9.678;2024-01-06T03:18:23;11.70;;;2.95;;
29902;SDS011;30288;50.514;9.678;2024-01-06T03:20:28;11.13;;;2.88;;
29902;SDS011;30288;50.514;9.678;2024-01-06T03:22:34;9.57;;;2.38;;
29902;SDS011;30288;50.514;9.678;2024-01-06T03:24:41;11.57;;;3.00;;
29902;SDS011;30288;50.514;9.678;2024-01-06T03:26:47;10.65;;;3.33;;
29902;SDS011;30288;50.514;9.678;2024-01-06T03:28:54;8.15;;;2.35;;
29902;SDS011;30288;50.514;9.678;2024-01-06T03:31:01;10.68;;;2.42;;
29902;SDS011;30288;50.514;9.678;2024-01-06T03:33:08;6.45;;;2.30;;
29902;SDS011;30288;50.514;9.678;2024-01-06T03:35:14;7.95;;;3.38;;
29902;SDS011;30288;50.514;9.678;2024-01-06T03:37:20;12.35;;;2.63;;
29902;SDS011;30288;50.514;9.678;2024-01-06T03:39:27;14.80;;;4.68;;
29902;SDS011;30288;50.514;9.678;2024-01-06T03:41:32;13.30;;;3.00;;
29902;SDS011;30288;50.514;9.678;2024-01-06T03:43:40;10.32;;;2.40;;
29902;SDS011;30288;50.514;9.678;2024-01-06T03:45:50;6.43;;;2.20;;
29902;SDS011;30288;50.514;9.678;2024-01-06T03:47:59;7.93;;;2.45;;
29902;SDS011;30288;50.514;9.678;2024-01-06T03:50:05;8.93;;;2.45;;
29902;SDS011;30288;50.514;9.678;2024-01-06T03:52:13;9.07;;;2.28;;
29902;SDS011;30288;50.514;9.678;2024-01-06T03:54:32;11.43;;;3.08;;
29902;SDS011;30288;50.514;9.678;2024-01-06T03:56:36;9.27;;;2.38;;
29902;SDS011;30288;50.514;9.678;2024-01-06T03:58:41;12.77;;;2.30;;
29902;SDS011;30288;50.514;9.678;2024-01-06T04:00:47;9.88;;;3.00;;
29902;SDS011;30288;50.514;9.678;2024-01-06T04:02:55;7.63;;;2.30;;
29902;SDS011;30288;50.514;9.678;2024-01-06T04:05:03;12.38;;;2.67;;
29902;SDS011;30288;50.514;9.678;2024-01-06T04:07:09;6.78;;;2.13;;
29902;SDS011;30288;50.514;9.678;2024-01-06T04:09:15;10.43;;;2.47;;
29902;SDS011;30288;50.514;9.678;2024-01-06T04:11:23;9.02;;;2.40;;
29902;SDS011;30288;50.514;9.678;2024-01-06T04:13:31;7.45;;;2.05;;
29902;SDS011;30288;50.514;9.678;2024-01-06T04:15:37;11.60;;;2.25;;
29902;SDS011;30288;50.514;9.678;2024-01-06T04:17:42;8.38;;;2.25;;
29902;SDS011;30288;50.514;9.678;2024-01-06T04:19:48;7.10;;;2.05;;
29902;SDS011;30288;50.514;9.678;2024-01-06T04:21:57;17.42;;;3.55;;
29902;SDS011;30288;50.514;9.678;2024-01-06T04:24:04;6.22;;;2.28;;
29902;SDS011;30288;50.514;9.678;2024-01-06T04:26:13;10.35;;;2.50;;
29902;SDS011;30288;50.514;9.678;2024-01-06T04:28:19;8.32;;;2.55;;
29902;SDS011;30288;50.514;9.678;2024-01-06T04:30:24;11.60;;;2.50;;
29902;SDS011;30288;50.514;9.678;2024-01-06T04:32:31;11.40;;;2.20;;
29902;SDS011;30288;50.514;9.678;2024-01-06T04:34:36;6.45;;;2.30;;
29902;SDS011;30288;50.514;9.678;2024-01-06T04:36:41;9.35;;;2.63;;
29902;SDS011;30288;50.514;9.678;2024-01-06T04:38:50;8.40;;;2.97;;
29902;SDS011;30288;50.514;9.678;2024-01-06T04:40:55;9.80;;;2.75;;
29902;SDS011;30288;50.514;9.678;2024-01-06T04:43:01;9.82;;;2.60;;
29902;SDS011;30288;50.514;9.678;2024-01-06T04:45:08;9.77;;;2.38;;
29902;SDS011;30288;50.514;9.678;2024-01-06T04:47:15;7.55;;;3.05;;
29902;SDS011;30288;50.514;9.678;2024-01-06T04:49:23;9.65;;;2.63;;
29902;SDS011;30288;50.514;9.678;2024-01-06T04:51:33;10.60;;;2.45;;
29902;SDS011;30288;50.514;9.678;2024-01-06T04:53:51;10.77;;;3.53;;
29902;SDS011;30288;50.514;9.678;2024-01-06T04:55:56;9.13;;;3.08;;
29902;SDS011;30288;50.514;9.678;2024-01-06T04:58:02;9.35;;;2.35;;
29902;SDS011;30288;50.514;9.678;2024-01-06T05:00:09;10.75;;;2.80;;
29902;SDS011;30288;50.514;9.678;2024-01-06T05:02:19;6.80;;;2.90;;
29902;SDS011;30288;50.514;9.678;2024-01-06T05:04:28;11.07;;;3.33;;
29902;SDS011;30288;50.514;9.678;2024-01-06T05:06:34;9.80;;;2.85;;
29902;SDS011;30288;50.514;9.678;2024-01-06T05:08:40;6.93;;;2.60;;
29902;SDS011;30288;50.514;9.678;2024-01-06T05:10:49;7.78;;;2.75;;
29902;SDS011;30288;50.514;9.678;2024-01-06T05:12:57;10.38;;;2.72;;
29902;SDS011;30288;50.514;9.678;2024-01-06T05:15:03;10.15;;;2.85;;
29902;SDS011;30288;50.514;9.678;2024-01-06T05:17:10;9.80;;;3.17;;
29902;SDS011;30288;50.514;9.678;2024-01-06T05:19:16;7.90;;;2.70;;
29902;SDS011;30288;50.514;9.678;2024-01-06T05:21:24;10.15;;;3.10;;
29902;SDS011;30288;50.514;9.678;2024-01-06T05:23:34;11.85;;;2.75;;
29902;SDS011;30288;50.514;9.678;2024-01-06T05:25:39;10.27;;;3.05;;
29902;SDS011;30288;50.514;9.678;2024-01-06T05:27:47;11.63;;;3.88;;
29902;SDS011;30288;50.514;9.678;2024-01-06T05:29:53;9.35;;;2.78;;
29902;SDS011;30288;50.514;9.678;2024-01-06T05:32:00;11.13;;;2.47;;
29902;SDS011;30288;50.514;9.678;2024-01-06T05:34:03;13.98;;;3.63;;
29902;SDS011;30288;50.514;9.678;2024-01-06T05:36:09;9.95;;;3.10;;
29902;SDS011;30288;50.514;9.678;2024-01-06T05:38:15;7.05;;;2.35;;
29902;SDS011;30288;50.514;9.678;2024-01-06T05:40:20;12.75;;;2.60;;
29902;SDS011;30288;50.514;9.678;2024-01-06T05:42:26;12.32;;;3.10;;
29902;SDS011;30288;50.514;9.678;2024-01-06T05:44:37;12.90;;;2.80;;
29902;SDS011;30288;50.514;9.678;2024-01-06T05:46:42;9.95;;;3.15;;
29902;SDS011;30288;50.514;9.678;2024-01-06T05:48:48;11.98;;;2.83;;
29902;SDS011;30288;50.514;9.678;2024-01-06T05:50:54;9.70;;;2.22;;
29902;SDS011;30288;50.514;9.678;2024-01-06T05:52:59;9.05;;;2.65;;
29902;SDS011;30288;50.514;9.678;2024-01-06T05:55:05;9.40;;;2.83;;
29902;SDS011;30288;50.514;9.678;2024-01-06T05:57:13;11.20;;;4.50;;
29902;SDS011;30288;50.514;9.678;2024-01-06T05:59:19;16.05;;;6.30;;
29902;SDS011;30288;50.514;9.678;2024-01-06T06:01:29;8.57;;;3.88;;
29902;SDS011;30288;50.514;9.678;2024-01-06T06:03:39;8.82;;;3.63;;
29902;SDS011;30288;50.514;9.678;2024-01-06T06:05:45;13.32;;;3.50;;
29902;SDS011;30288;50.514;9.678;2024-01-06T06:07:50;14.20;;;3.22;;
29902;SDS011;30288;50.514;9.678;2024-01-06T06:09:56;8.75;;;2.80;;
29902;SDS011;30288;50.514;9.678;2024-01-06T06:12:10;16.52;;;3.47;;
29902;SDS011;30288;50.514;9.678;2024-01-06T06:14:17;8.18;;;2.72;;
29902;SDS011;30288;50.514;9.678;2024-01-06T06:16:28;8.25;;;2.70;;
29902;SDS011;30288;50.514;9.678;2024-01-06T06:18:34;8.55;;;2.80;;
29902;SDS011;30288;50.514;9.678;2024-01-06T06:20:39;8.68;;;2.60;;
29902;SDS011;30288;50.514;9.678;2024-01-06T06:22:43;9.85;;;2.88;;
29902;SDS011;30288;50.514;9.678;2024-01-06T06:24:51;8.88;;;2.38;;
29902;SDS011;30288;50.514;9.678;2024-01-06T06:26:57;12.50;;;4.90;;
29902;SDS011;30288;50.514;9.678;2024-01-06T06:29:02;14.48;;;2.80;;
29902;SDS011;30288;50.514;9.678;2024-01-06T06:31:08;12.88;;;2.85;;
29902;SDS011;30288;50.514;9.678;2024-01-06T06:33:16;7.20;;;2.83;;
29902;SDS011;30288;50.514;9.678;2024-01-06T06:35:20;7.10;;;2.80;;
29902;SDS011;30288;50.514;9.678;2024-01-06T06:37:26;10.77;;;3.20;;
29902;SDS011;30288;50.514;9.678;2024-01-06T06:39:31;9.32;;;2.85;;
29902;SDS011;30288;50.514;9.678;2024-01-06T06:41:37;7.35;;;2.40;;
29902;SDS011;30288;50.514;9.678;2024-01-06T06:43:47;9.75;;;2.95;;
29902;SDS011;30288;50.514;9.678;2024-01-06T06:45:53;11.52;;;2.95;;
29902;SDS011;30288;50.514;9.678;2024-01-06T06:48:00;12.40;;;2.63;;
29902;SDS011;30288;50.514;9.678;2024-01-06T06:50:08;7.20;;;2.83;;
29902;SDS011;30288;50.514;9.678;2024-01-06T06:52:14;8.63;;;3.05;;
29902;SDS011;30288;50.514;9.678;2024-01-06T06:54:20;11.65;;;2.97;;
29902;SDS011;30288;50.514;9.678;2024-01-06T06:56:26;8.95;;;3.00;;
29902;SDS011;30288;50.514;9.678;2024-01-06T06:58:32;12.18;;;3.60;;
29902;SDS011;30288;50.514;9.678;2024-01-06T07:00:37;14.35;;;3.63;;
29902;SDS011;30288;50.514;9.678;2024-01-06T07:02:44;10.32;;;2.75;;
29902;SDS011;30288;50.514;9.678;2024-01-06T07:04:51;9.68;;;3.13;;
29902;SDS011;30288;50.514;9.678;2024-01-06T07:07:00;12.20;;;2.75;;
29902;SDS011;30288;50.514;9.678;2024-01-06T07:09:05;11.80;;;3.38;;
29902;SDS011;30288;50.514;9.678;2024-01-06T07:11:14;7.93;;;3.28;;
29902;SDS011;30288;50.514;9.678;2024-01-06T07:13:22;8.88;;;3.05;;
29902;SDS011;30288;50.514;9.678;2024-01-06T07:15:27;9.85;;;3.55;;
29902;SDS011;30288;50.514;9.678;2024-01-06T07:17:33;9.82;;;3.47;;
29902;SDS011;30288;50.514;9.678;2024-01-06T07:19:40;10.65;;;3.13;;
29902;SDS011;30288;50.514;9.678;2024-01-06T07:21:45;10.95;;;2.95;;
29902;SDS011;30288;50.514;9.678;2024-01-06T07:23:56;9.50;;;3.10;;
29902;SDS011;30288;50.514;9.678;2024-01-06T07:26:03;11.75;;;3.28;;
29902;SDS011;30288;50.514;9.678;2024-01-06T07:28:10;11.27;;;3.22;;
29902;SDS011;30288;50.514;9.678;2024-01-06T07:30:16;12.43;;;3.45;;
29902;SDS011;30288;50.514;9.678;2024-01-06T07:32:26;12.57;;;3.40;;
29902;SDS011;30288;50.514;9.678;2024-01-06T07:34:35;12.63;;;3.40;;
29902;SDS011;30288;50.514;9.678;2024-01-06T07:36:41;7.80;;;2.78;;
29902;SDS011;30288;50.514;9.678;2024-01-06T07:38:46;8.18;;;3.17;;
29902;SDS011;30288;50.514;9.678;2024-01-06T07:40:56;8.32;;;3.15;;
29902;SDS011;30288;50.514;9.678;2024-01-06T07:43:02;9.25;;;3.60;;
29902;SDS011;30288;50.514;9.678;2024-01-06T07:45:06;12.40;;;3.30;;
29902;SDS011;30288;50.514;9.678;2024-01-06T07:47:15;9.32;;;3.15;;
29902;SDS011;30288;50.514;9.678;2024-01-06T07:49:20;10.02;;;3.20;;
29902;SDS011;30288;50.514;9.678;2024-01-06T07:51:29;13.20;;;3.58;;
29902;SDS011;30288;50.514;9.678;2024-01-06T07:53:36;15.60;;;4.63;;
29902;SDS011;30288;50.514;9.678;2024-01-06T07:55:43;13.38;;;5.43;;
29902;SDS011;30288;50.514;9.678;2024-01-06T07:57:53;12.25;;;3.35;;
29902;SDS011;30288;50.514;9.678;2024-01-06T07:59:57;10.43;;;3.60;;
29902;SDS011;30288;50.514;9.678;2024-01-06T08:02:15;12.15;;;4.20;;
29902;SDS011;30288;50.514;9.678;2024-01-06T08:04:22;10.45;;;3.40;;
29902;SDS011;30288;50.514;9.678;2024-01-06T08:06:28;10.50;;;3.70;;
29902;SDS011;30288;50.514;9.678;2024-01-06T08:08:33;8.43;;;3.60;;
29902;SDS011;30288;50.514;9.678;2024-01-06T08:10:38;17.20;;;4.28;;
29902;SDS011;30288;50.514;9.678;2024-01-06T08:12:46;8.40;;;3.22;;
29902;SDS011;30288;50.514;9.678;2024-01-06T08:14:54;11.15;;;3.70;;
29902;SDS011;30288;50.514;9.678;2024-01-06T08:17:00;7.85;;;3.15;;
29902;SDS011;30288;50.514;9.678;2024-01-06T08:19:05;8.55;;;3.15;;
29902;SDS011;30288;50.514;9.678;2024-01-06T08:21:24;13.32;;;3.35;;
29902;SDS011;30288;50.514;9.678;2024-01-06T08:23:30;7.72;;;3.17;;
29902;SDS011;30288;50.514;9.678;2024-01-06T08:25:35;11.90;;;3.33;;
29902;SDS011;30288;50.514;9.678;2024-01-06T08:27:41;9.45;;;3.08;;
29902;SDS011;30288;50.514;9.678;2024-01-06T08:29:46;7.95;;;2.70;;
29902;SDS011;30288;50.514;9.678;2024-01-06T08:33:59;10.60;;;2.90;;
29902;SDS011;30288;50.514;9.678;2024-01-06T08:36:08;10.68;;;2.80;;
29902;SDS011;30288;50.514;9.678;2024-01-06T08:38:14;14.05;;;2.80;;
29902;SDS011;30288;50.514;9.678;2024-01-06T08:40:20;10.40;;;2.78;;
29902;SDS011;30288;50.514;9.678;2024-01-06T08:42:26;9.13;;;2.85;;
29902;SDS011;30288;50.514;9.678;2024-01-06T08:44:31;11.43;;;3.28;;
29902;SDS011;30288;50.514;9.678;2024-01-06T08:46:37;11.32;;;2.80;;
29902;SDS011;30288;50.514;9.678;2024-01-06T08:48:45;8.60;;;2.60;;
29902;SDS011;30288;50.514;9.678;2024-01-06T08:50:50;8.82;;;3.28;;
29902;SDS011;30288;50.514;9.678;2024-01-06T08:52:56;14.13;;;3.85;;
29902;SDS011;30288;50.514;9.678;2024-01-06T08:55:01;11.13;;;3.05;;
29902;SDS011;30288;50.514;9.678;2024-01-06T08:57:08;8.63;;;2.90;;
29902;SDS011;30288;50.514;9.678;2024-01-06T08:59:14;7.18;;;2.90;;
29902;SDS011;30288;50.514;9.678;2024-01-06T09:01:21;11.15;;;3.25;;
29902;SDS011;30288;50.514;9.678;2024-01-06T09:03:26;11.18;;;3.28;;
29902;SDS011;30288;50.514;9.678;2024-01-06T09:05:34;9.45;;;3.30;;
29902;SDS011;30288;50.514;9.678;2024-01-06T09:07:39;13.88;;;4.05;;
29902;SDS011;30288;50.514;9.678;2024-01-06T09:09:46;14.50;;;3.53;;
29902;SDS011;30288;50.514;9.678;2024-01-06T09:11:53;11.70;;;3.85;;
29902;SDS011;30288;50.514;9.678;2024-01-06T09:13:59;9.32;;;3.25;;
29902;SDS011;30288;50.514;9.678;2024-01-06T09:16:07;10.02;;;3.20;;
29902;SDS011;30288;50.514;9.678;2024-01-06T09:18:13;10.52;;;3.70;;
29902;SDS011;30288;50.514;9.678;2024-01-06T09:20:19;9.90;;;3.47;;
29902;SDS011;30288;50.514;9.678;2024-01-06T09:22:28;11.43;;;3.88;;
29902;SDS011;30288;50.514;9.678;2024-01-06T09:24:35;9.05;;;3.63;;
29902;SDS011;30288;50.514;9.678;2024-01-06T09:26:41;10.63;;;4.13;;
29902;SDS011;30288;50.514;9.678;2024-01-06T09:28:48;11.60;;;3.78;;
29902;SDS011;30288;50.514;9.678;2024-01-06T09:30:51;14.57;;;4.07;;
29902;SDS011;30288;50.514;9.678;2024-01-06T09:32:58;11.50;;;3.95;;
29902;SDS011;30288;50.514;9.678;2024-01-06T09:35:04;9.23;;;3.78;;
29902;SDS011;30288;50.514;9.678;2024-01-06T09:37:10;11.00;;;3.78;;
29902;SDS011;30288;50.514;9.678;2024-01-06T09:39:19;12.10;;;3.50;;
29902;SDS011;30288;50.514;9.678;2024-01-06T09:41:24;10.68;;;3.63;;
29902;SDS011;30288;50.514;9.678;2024-01-06T09:43:32;16.38;;;5.30;;
29902;SDS011;30288;50.514;9.678;2024-01-06T09:45:38;12.38;;;4.00;;
29902;SDS011;30288;50.514;9.678;2024-01-06T09:47:45;8.73;;;3.55;;
29902;SDS011;30288;50.514;9.678;2024-01-06T09:49:53;8.50;;;3.53;;
29902;SDS011;30288;50.514;9.678;2024-01-06T09:52:00;7.28;;;3.63;;
29902;SDS011;30288;50.514;9.678;2024-01-06T09:54:09;9.57;;;4.35;;
29902;SDS011;30288;50.514;9.678;2024-01-06T09:56:19;10.35;;;4.45;;
29902;SDS011;30288;50.514;9.678;2024-01-06T09:58:25;12.18;;;4.10;;
29902;SDS011;30288;50.514;9.678;2024-01-06T10:00:34;8.50;;;3.67;;
29902;SDS011;30288;50.514;9.678;2024-01-06T10:02:42;9.98;;;3.63;;
29902;SDS011;30288;50.514;9.678;2024-01-06T10:04:49;8.90;;;4.05;;
29902;SDS011;30288;50.514;9.678;2024-01-06T10:06:55;10.38;;;4.00;;
29902;SDS011;30288;50.514;9.678;2024-01-06T10:09:00;11.98;;;3.58;;
29902;SDS011;30288;50.514;9.678;2024-01-06T10:11:08;7.70;;;3.30;;
29902;SDS011;30288;50.514;9.678;2024-01-06T10:13:19;12.15;;;3.63;;
29902;SDS011;30288;50.514;9.678;2024-01-06T10:15:27;11.32;;;4.03;;
29902;SDS011;30288;50.514;9.678;2024-01-06T10:17:36;9.95;;;4.03;;
29902;SDS011;30288;50.514;9.678;2024-01-06T10:19:44;8.90;;;3.92;;
29902;SDS011;30288;50.514;9.678;2024-01-06T10:21:53;12.85;;;3.92;;
29902;SDS011;30288;50.514;9.678;2024-01-06T10:24:04;9.82;;;3.72;;
29902;SDS011;30288;50.514;9.678;2024-01-06T10:26:12;12.10;;;4.10;;
29902;SDS011;30288;50.514;9.678;2024-01-06T10:28:22;11.07;;;4.00;;
29902;SDS011;30288;50.514;9.678;2024-01-06T10:30:28;15.95;;;4.88;;
29902;SDS011;30288;50.514;9.678;2024-01-06T10:32:35;14.35;;;6.82;;
29902;SDS011;30288;50.514;9.678;2024-01-06T10:34:41;12.15;;;4.10;;
29902;SDS011;30288;50.514;9.678;2024-01-06T10:36:48;10.77;;;4.15;;
29902;SDS011;30288;50.514;9.678;2024-01-06T10:38:54;13.55;;;4.90;;
29902;SDS011;30288;50.514;9.678;2024-01-06T10:41:01;10.75;;;4.25;;
29902;SDS011;30288;50.514;9.678;2024-01-06T10:43:09;11.45;;;4.68;;
29902;SDS011;30288;50.514;9.678;2024-01-06T10:45:18;16.70;;;4.25;;
29902;SDS011;30288;50.514;9.678;2024-01-06T10:47:23;9.57;;;3.80;;
29902;SDS011;30288;50.514;9.678;2024-01-06T10:49:32;10.95;;;4.60;;
29902;SDS011;30288;50.514;9.678;2024-01-06T10:51:40;11.60;;;3.88;;
29902;SDS011;30288;50.514;9.678;2024-01-06T10:53:48;11.55;;;3.95;;
29902;SDS011;30288;50.514;9.678;2024-01-06T10:55:56;11.02;;;4.15;;
29902;SDS011;30288;50.514;9.678;2024-01-06T10:58:02;9.43;;;3.97;;
29902;SDS011;30288;50.514;9.678;2024-01-06T11:00:11;13.40;;;4.50;;
29902;SDS011;30288;50.514;9.678;2024-01-06T11:02:21;11.20;;;4.22;;
29902;SDS011;30288;50.514;9.678;2024-01-06T11:04:33;12.23;;;4.65;;
29902;SDS011;30288;50.514;9.678;2024-01-06T11:06:36;11.02;;;4.78;;
29902;SDS011;30288;50.514;9.678;2024-01-06T11:08:44;14.85;;;4.95;;
29902;SDS011;30288;50.514;9.678;2024-01-06T11:10:56;15.18;;;4.80;;
29902;SDS011;30288;50.514;9.678;2024-01-06T11:13:10;11.55;;;4.63;;
29902;SDS011;30288;50.514;9.678;2024-01-06T11:17:53;12.70;;;4.88;;
29902;SDS011;30288;50.514;9.678;2024-01-06T11:22:20;11.93;;;3.70;;
29902;SDS011;30288;50.514;9.678;2024-01-06T11:24:32;12.43;;;4.85;;
29902;SDS011;30288;50.514;9.678;2024-01-06T11:26:44;12.82;;;4.22;;
29902;SDS011;30288;50.514;9.678;2024-01-06T11:28:58;10.60;;;3.83;;
29902;SDS011;30288;50.514;9.678;2024-01-06T11:31:07;14.30;;;4.00;;
29902;SDS011;30288;50.514;9.678;2024-01-06T11:33:43;11.13;;;4.10;;
29902;SDS011;30288;50.514;9.678;2024-01-06T11:35:53;11.40;;;4.45;;
29902;SDS011;30288;50.514;9.678;2024-01-06T11:38:00;13.75;;;4.85;;
29902;SDS011;30288;50.514;9.678;2024-01-06T11:40:08;9.13;;;3.92;;
29902;SDS011;30288;50.514;9.678;2024-01-06T11:42:18;8.63;;;3.70;;
29902;SDS011;30288;50.514;9.678;2024-01-06T11:44:38;10.95;;;4.32;;
29902;SDS011;30288;50.514;9.678;2024-01-06T11:46:48;13.23;;;4.43;;
29902;SDS011;30288;50.514;9.678;2024-01-06T11:48:56;10.38;;;4.82;;
29902;SDS011;30288;50.514;9.678;2024-01-06T11:51:06;15.57;;;5.70;;
29902;SDS011;30288;50.514;9.678;2024-01-06T11:53:14;14.35;;;5.13;;
29902;SDS011;30288;50.514;9.678;2024-01-06T11:55:20;10.00;;;4.32;;
29902;SDS011;30288;50.514;9.678;2024-01-06T11:57:29;12.95;;;4.60;;
29902;SDS011;30288;50.514;9.678;2024-01-06T11:59:32;11.10;;;5.07;;
29902;SDS011;30288;50.514;9.678;2024-01-06T12:01:41;16.25;;;5.20;;
29902;SDS011;30288;50.514;9.678;2024-01-06T12:03:48;10.65;;;4.75;;
29902;SDS011;30288;50.514;9.678;2024-01-06T12:06:02;10.90;;;4.47;;
29902;SDS011;30288;50.514;9.678;2024-01-06T12:08:09;10.05;;;4.15;;
29902;SDS011;30288;50.514;9.678;2024-01-06T12:10:14;9.50;;;4.43;;
29902;SDS011;30288;50.514;9.678;2024-01-06T12:12:22;12.88;;;5.35;;
29902;SDS011;30288;50.514;9.678;2024-01-06T12:14:32;11.25;;;4.40;;
29902;SDS011;30288;50.514;9.678;2024-01-06T12:16:37;12.00;;;4.40;;
29902;SDS011;30288;50.514;9.678;2024-01-06T12:18:43;10.70;;;4.80;;
29902;SDS011;30288;50.514;9.678;2024-01-06T12:20:48;10.40;;;4.85;;
29902;SDS011;30288;50.514;9.678;2024-01-06T12:23:00;13.93;;;5.18;;
29902;SDS011;30288;50.514;9.678;2024-01-06T12:25:09;11.75;;;4.55;;
29902;SDS011;30288;50.514;9.678;2024-01-06T12:27:17;10.85;;;4.20;;
29902;SDS011;30288;50.514;9.678;2024-01-06T12:29:26;13.70;;;5.60;;
29902;SDS011;30288;50.514;9.678;2024-01-06T12:31:34;9.48;;;4.35;;
29902;SDS011;30288;50.514;9.678;2024-01-06T12:33:41;13.18;;;4.57;;
29902;SDS011;30288;50.514;9.678;2024-01-06T12:35:48;8.93;;;4.95;;
29902;SDS011;30288;50.514;9.678;2024-01-06T12:37:53;12.85;;;5.55;;
29902;SDS011;30288;50.514;9.678;2024-01-06T12:40:01;11.50;;;5.13;;
29902;SDS011;30288;50.514;9.678;2024-01-06T12:42:08;10.48;;;4.07;;
29902;SDS011;30288;50.514;9.678;2024-01-06T12:44:14;16.67;;;6.88;;
29902;SDS011;30288;50.514;9.678;2024-01-06T12:46:19;13.05;;;5.97;;
29902;SDS011;30288;50.514;9.678;2024-01-06T12:48:26;18.17;;;7.60;;
29902;SDS011;30288;50.514;9.678;2024-01-06T12:50:32;14.82;;;5.68;;